Terminal Aerodrome Forecast
Issued by NWS Jackson, KY

Home | Current Version | Previous Version | Text Only | Print | Product List | Glossary On
Versions: 1 2 3 4 5 6 7 8 9 10 11 12 13 14 15 16 17 18 19
000
FTUS43 KJKL 250205 AAA
TAFLOZ
TAF AMD
KLOZ 250205Z 2502/2524 VRB04KT P6SM VCSH SCT015 OVC035
     FM250500 31005KT 5SM BR VCSH OVC008
     FM251300 32005KT 4SM BR VCSH OVC008
     FM251800 32005KT P6SM SCT008 BKN015
     FM252100 33006KT P6SM BKN020=

USA.gov is the U.S. government's official web portal to all federal, state and local government web resources and services.